Terminal Aerodrome Forecast
Issued by NWS Cheyenne, WY

Home | Current Version | Previous Version | Text Only | Print | Product List | Glossary On
Versions: 1 2 3 4 5 6 7 8 9 10 11 12 13 14 15 16 17 18 19 20 21 22 23 24 25 26 27 28 29 30
000
FTUS45 KCYS 021820 CCA
TAFCYS
TAF COR
KCYS 021820Z 0218/0318 13010G18KT P6SM VCTS BKN100CB
      TEMPO 0218/0221 24022G35KT 5SM -TSRA SCT080 OVC100CB
     FM030100 22006KT P6SM BKN200
     FM031500 14007G16KT P6SM SCT100=

USA.gov is the U.S. government's official web portal to all federal, state and local government web resources and services.